Metar z połowy godziny Komunikat METAR ze strony awiacja.imgw.pl Metar Mil EPLK METAR EPLK 261100Z 28013KT 9999 SCT011 OVC025 00/00 Q1007 RMK 003 099 8/3=